sensor_id;sensor_type;location;lat;lon;timestamp;pressure;altitude;pressure_sealevel;temperature;humidity
75617;BME280;64200;55.426;37.758;2022-12-10T00:04:55;99166.22;;;-2.23;75.79
75617;BME280;64200;55.426;37.758;2022-12-10T00:09:55;99184.19;;;-2.22;75.82
75617;BME280;64200;55.426;37.758;2022-12-10T00:14:56;99179.13;;;-2.23;76.21
75617;BME280;64200;55.426;37.758;2022-12-10T00:19:56;99183.78;;;-2.31;75.06
75617;BME280;64200;55.426;37.758;2022-12-10T00:24:57;99187.69;;;-2.21;76.15
75617;BME280;64200;55.426;37.758;2022-12-10T00:29:57;99190.41;;;-2.10;75.73
75617;BME280;64200;55.426;37.758;2022-12-10T00:34:58;99172.09;;;-2.17;75.71
75617;BME280;64200;55.426;37.758;2022-12-10T00:39:58;99174.03;;;-2.07;75.60
75617;BME280;64200;55.426;37.758;2022-12-10T00:44:59;99149.81;;;-2.08;76.01
75617;BME280;64200;55.426;37.758;2022-12-10T00:50:00;99158.00;;;-2.05;74.99
75617;BME280;64200;55.426;37.758;2022-12-10T00:55:01;99153.31;;;-2.04;75.33
75617;BME280;64200;55.426;37.758;2022-12-10T01:00:02;99126.78;;;-2.04;75.90
75617;BME280;64200;55.426;37.758;2022-12-10T01:05:03;99126.38;;;-1.99;75.45
75617;BME280;64200;55.426;37.758;2022-12-10T01:10:04;99133.00;;;-1.96;75.38
75617;BME280;64200;55.426;37.758;2022-12-10T01:15:04;99113.09;;;-2.00;75.17
75617;BME280;64200;55.426;37.758;2022-12-10T01:20:05;99118.56;;;-2.00;75.00
75617;BME280;64200;55.426;37.758;2022-12-10T01:25:07;99101.03;;;-2.17;74.44
75617;BME280;64200;55.426;37.758;2022-12-10T01:30:08;99104.97;;;-2.43;74.82
75617;BME280;64200;55.426;37.758;2022-12-10T01:35:09;99103.41;;;-2.34;75.72
75617;BME280;64200;55.426;37.758;2022-12-10T01:40:10;99108.47;;;-2.32;75.96
75617;BME280;64200;55.426;37.758;2022-12-10T01:45:12;99102.22;;;-2.29;75.79
75617;BME280;64200;55.426;37.758;2022-12-10T01:50:12;99098.72;;;-2.33;75.91
75617;BME280;64200;55.426;37.758;2022-12-10T02:00:47;99118.59;;;-2.25;75.71
75617;BME280;64200;55.426;37.758;2022-12-10T02:05:58;99129.53;;;-2.18;75.34
75617;BME280;64200;55.426;37.758;2022-12-10T02:11:21;99133.81;;;-2.21;75.30
75617;BME280;64200;55.426;37.758;2022-12-10T02:16:31;99142.41;;;-2.40;75.51
75617;BME280;64200;55.426;37.758;2022-12-10T02:21:36;99118.25;;;-2.53;76.12
75617;BME280;64200;55.426;37.758;2022-12-10T02:32:06;99126.81;;;-2.51;76.21
75617;BME280;64200;55.426;37.758;2022-12-10T02:37:35;99126.03;;;-2.48;75.97
75617;BME280;64200;55.426;37.758;2022-12-10T02:42:41;99114.31;;;-2.30;76.73
75617;BME280;64200;55.426;37.758;2022-12-10T02:47:43;99107.28;;;-2.17;76.11
75617;BME280;64200;55.426;37.758;2022-12-10T02:52:44;99090.47;;;-2.08;76.08
75617;BME280;64200;55.426;37.758;2022-12-10T03:13:37;99100.56;;;-1.87;75.88
75617;BME280;64200;55.426;37.758;2022-12-10T03:18:39;99098.22;;;-1.81;75.70
75617;BME280;64200;55.426;37.758;2022-12-10T03:23:42;99098.59;;;-1.75;75.54
75617;BME280;64200;55.426;37.758;2022-12-10T03:28:50;99108.72;;;-1.72;75.54
75617;BME280;64200;55.426;37.758;2022-12-10T03:33:51;99111.06;;;-1.71;75.74
75617;BME280;64200;55.426;37.758;2022-12-10T03:38:53;99111.47;;;-1.72;75.10
75617;BME280;64200;55.426;37.758;2022-12-10T03:43:56;99111.84;;;-1.70;75.33
75617;BME280;64200;55.426;37.758;2022-12-10T03:48:58;99095.81;;;-1.65;75.04
75617;BME280;64200;55.426;37.758;2022-12-10T03:53:59;99097.78;;;-1.65;74.58
75617;BME280;64200;55.426;37.758;2022-12-10T03:58:59;99093.88;;;-1.68;74.81
75617;BME280;64200;55.426;37.758;2022-12-10T04:04:00;99087.63;;;-1.68;74.97
75617;BME280;64200;55.426;37.758;2022-12-10T04:09:00;99084.16;;;-1.80;74.89
75617;BME280;64200;55.426;37.758;2022-12-10T04:14:01;99073.59;;;-1.81;74.64
75617;BME280;64200;55.426;37.758;2022-12-10T04:19:21;99082.22;;;-1.79;74.79
75617;BME280;64200;55.426;37.758;2022-12-10T04:24:24;99088.47;;;-1.86;75.12
75617;BME280;64200;55.426;37.758;2022-12-10T04:29:43;99088.44;;;-1.71;75.16
75617;BME280;64200;55.426;37.758;2022-12-10T04:34:44;99090.75;;;-1.66;74.91
75617;BME280;64200;55.426;37.758;2022-12-10T04:39:45;99094.63;;;-1.60;75.18
75617;BME280;64200;55.426;37.758;2022-12-10T04:44:46;99087.59;;;-1.65;75.00
75617;BME280;64200;55.426;37.758;2022-12-10T04:49:47;99089.59;;;-1.72;74.61
75617;BME280;64200;55.426;37.758;2022-12-10T04:54:47;99091.88;;;-1.60;74.99
75617;BME280;64200;55.426;37.758;2022-12-10T04:59:48;99089.16;;;-1.64;74.88
75617;BME280;64200;55.426;37.758;2022-12-10T05:04:49;99077.47;;;-1.68;75.24
75617;BME280;64200;55.426;37.758;2022-12-10T05:09:49;99070.44;;;-1.69;74.17
75617;BME280;64200;55.426;37.758;2022-12-10T05:14:50;99082.16;;;-1.68;75.10
75617;BME280;64200;55.426;37.758;2022-12-10T05:19:50;99086.09;;;-1.73;75.38
75617;BME280;64200;55.426;37.758;2022-12-10T05:24:52;99093.56;;;-1.91;74.86
75617;BME280;64200;55.426;37.758;2022-12-10T05:29:52;99092.81;;;-2.03;75.90
75617;BME280;64200;55.426;37.758;2022-12-10T05:34:54;99101.03;;;-2.03;75.81
75617;BME280;64200;55.426;37.758;2022-12-10T05:39:54;99108.81;;;-1.98;76.10
75617;BME280;64200;55.426;37.758;2022-12-10T05:44:55;99107.97;;;-1.84;75.88
75617;BME280;64200;55.426;37.758;2022-12-10T05:49:56;99103.63;;;-1.70;75.77
75617;BME280;64200;55.426;37.758;2022-12-10T05:54:56;99107.53;;;-1.61;76.44
75617;BME280;64200;55.426;37.758;2022-12-10T05:59:57;99097.34;;;-1.60;76.37
75617;BME280;64200;55.426;37.758;2022-12-10T06:04:57;99082.88;;;-1.57;75.82
75617;BME280;64200;55.426;37.758;2022-12-10T06:09:58;99069.59;;;-1.55;76.25
75617;BME280;64200;55.426;37.758;2022-12-10T06:14:58;99078.91;;;-1.42;75.78
75617;BME280;64200;55.426;37.758;2022-12-10T06:19:59;99076.94;;;-1.37;76.22
75617;BME280;64200;55.426;37.758;2022-12-10T06:24:59;99076.91;;;-1.34;76.11
75617;BME280;64200;55.426;37.758;2022-12-10T06:30:00;99069.06;;;-1.28;76.79
75617;BME280;64200;55.426;37.758;2022-12-10T06:35:01;99063.53;;;-1.17;76.40
75617;BME280;64200;55.426;37.758;2022-12-10T06:40:02;99063.47;;;-1.07;75.94
75617;BME280;64200;55.426;37.758;2022-12-10T06:45:04;99061.91;;;-1.11;75.91
75617;BME280;64200;55.426;37.758;2022-12-10T06:50:05;99062.03;;;-1.26;76.13
75617;BME280;64200;55.426;37.758;2022-12-10T06:55:06;99071.03;;;-1.32;76.84
75617;BME280;64200;55.426;37.758;2022-12-10T07:00:07;99068.59;;;-1.12;75.92
75617;BME280;64200;55.426;37.758;2022-12-10T07:05:08;99074.47;;;-1.14;75.93
75617;BME280;64200;55.426;37.758;2022-12-10T07:10:08;99078.44;;;-1.29;76.42
75617;BME280;64200;55.426;37.758;2022-12-10T07:15:10;99070.56;;;-1.20;76.40
75617;BME280;64200;55.426;37.758;2022-12-10T07:20:10;99059.53;;;-1.02;77.02
75617;BME280;64200;55.426;37.758;2022-12-10T07:25:12;99059.06;;;-0.93;75.88
75617;BME280;64200;55.426;37.758;2022-12-10T07:30:13;99061.34;;;-0.84;75.98
75617;BME280;64200;55.426;37.758;2022-12-10T07:35:13;99065.88;;;-0.63;76.33
75617;BME280;64200;55.426;37.758;2022-12-10T07:40:14;99062.34;;;-0.60;76.26
75617;BME280;64200;55.426;37.758;2022-12-10T07:45:14;99051.28;;;-0.49;76.36
75617;BME280;64200;55.426;37.758;2022-12-10T07:50:18;99035.66;;;-0.52;76.10
75617;BME280;64200;55.426;37.758;2022-12-10T07:55:19;99043.81;;;-0.49;75.65
75617;BME280;64200;55.426;37.758;2022-12-10T08:00:19;99053.25;;;-0.50;75.94
75617;BME280;64200;55.426;37.758;2022-12-10T08:05:20;99060.25;;;-0.49;75.92
75617;BME280;64200;55.426;37.758;2022-12-10T08:10:20;99069.97;;;-0.41;75.82
75617;BME280;64200;55.426;37.758;2022-12-10T08:15:21;99041.88;;;-0.48;76.25
75617;BME280;64200;55.426;37.758;2022-12-10T08:20:22;99046.50;;;-0.42;75.95
75617;BME280;64200;55.426;37.758;2022-12-10T08:25:23;99048.75;;;-0.33;76.48
75617;BME280;64200;55.426;37.758;2022-12-10T08:30:24;99047.47;;;-0.21;76.25
75617;BME280;64200;55.426;37.758;2022-12-10T08:35:24;99050.22;;;-0.21;76.22
75617;BME280;64200;55.426;37.758;2022-12-10T08:40:25;99042.88;;;-0.31;74.85
75617;BME280;64200;55.426;37.758;2022-12-10T08:45:26;99040.13;;;-0.31;76.06
75617;BME280;64200;55.426;37.758;2022-12-10T08:50:27;99032.31;;;-0.29;75.80
75617;BME280;64200;55.426;37.758;2022-12-10T08:55:28;99038.16;;;-0.27;76.06
75617;BME280;64200;55.426;37.758;2022-12-10T09:00:29;99039.16;;;-0.10;75.74
75617;BME280;64200;55.426;37.758;2022-12-10T09:05:29;99038.69;;;-0.05;76.13
75617;BME280;64200;55.426;37.758;2022-12-10T09:10:30;99039.50;;;-0.08;75.66
75617;BME280;64200;55.426;37.758;2022-12-10T09:15:30;99033.25;;;-0.09;76.26
75617;BME280;64200;55.426;37.758;2022-12-10T09:20:31;99044.50;;;0.01;75.12
75617;BME280;64200;55.426;37.758;2022-12-10T09:25:32;99044.84;;;0.06;75.71
75617;BME280;64200;55.426;37.758;2022-12-10T09:30:32;99057.69;;;0.13;75.46
75617;BME280;64200;55.426;37.758;2022-12-10T09:35:33;99025.94;;;0.15;75.67
75617;BME280;64200;55.426;37.758;2022-12-10T09:40:49;99017.97;;;0.25;75.97
75617;BME280;64200;55.426;37.758;2022-12-10T09:46:02;99022.28;;;0.26;75.63
75617;BME280;64200;55.426;37.758;2022-12-10T09:51:23;99025.09;;;0.19;75.85
75617;BME280;64200;55.426;37.758;2022-12-10T09:56:43;99029.19;;;0.38;75.89
75617;BME280;64200;55.426;37.758;2022-12-10T10:01:45;99019.78;;;0.35;75.49
75617;BME280;64200;55.426;37.758;2022-12-10T10:06:48;99011.81;;;0.44;75.93
75617;BME280;64200;55.426;37.758;2022-12-10T10:11:48;99010.91;;;0.55;76.18
75617;BME280;64200;55.426;37.758;2022-12-10T10:16:54;99014.06;;;0.53;75.04
75617;BME280;64200;55.426;37.758;2022-12-10T10:21:58;99005.06;;;0.52;74.80
75617;BME280;64200;55.426;37.758;2022-12-10T10:27:10;99001.66;;;0.45;74.92
75617;BME280;64200;55.426;37.758;2022-12-10T10:37:18;98985.78;;;0.29;74.91
75617;BME280;64200;55.426;37.758;2022-12-10T10:42:27;98985.94;;;0.18;74.92
75617;BME280;64200;55.426;37.758;2022-12-10T10:47:31;98983.63;;;0.13;75.29
75617;BME280;64200;55.426;37.758;2022-12-10T10:52:37;98982.31;;;0.25;76.27
75617;BME280;64200;55.426;37.758;2022-12-10T10:57:38;98970.72;;;0.13;75.87
75617;BME280;64200;55.426;37.758;2022-12-10T11:02:41;98971.03;;;0.19;75.77
75617;BME280;64200;55.426;37.758;2022-12-10T11:07:42;98963.44;;;0.30;74.95
75617;BME280;64200;55.426;37.758;2022-12-10T11:12:55;98950.22;;;0.22;75.93
75617;BME280;64200;55.426;37.758;2022-12-10T11:17:56;98938.16;;;0.43;75.71
75617;BME280;64200;55.426;37.758;2022-12-10T11:23:00;98933.06;;;0.45;75.45
75617;BME280;64200;55.426;37.758;2022-12-10T11:28:12;98921.34;;;0.41;74.72
75617;BME280;64200;55.426;37.758;2022-12-10T11:38:29;98929.59;;;0.41;75.14
75617;BME280;64200;55.426;37.758;2022-12-10T11:54:10;98919.78;;;0.12;75.71
75617;BME280;64200;55.426;37.758;2022-12-10T12:15:44;98905.75;;;0.34;75.72
75617;BME280;64200;55.426;37.758;2022-12-10T12:20:52;98895.97;;;0.06;75.71
75617;BME280;64200;55.426;37.758;2022-12-10T12:25:58;98888.44;;;0.13;75.90
75617;BME280;64200;55.426;37.758;2022-12-10T12:31:10;98888.75;;;0.19;75.76
75617;BME280;64200;55.426;37.758;2022-12-10T12:36:24;98880.56;;;0.15;75.75
75617;BME280;64200;55.426;37.758;2022-12-10T12:41:53;98873.75;;;0.00;76.47
75617;BME280;64200;55.426;37.758;2022-12-10T12:57:43;98884.19;;;0.09;76.67
75617;BME280;64200;55.426;37.758;2022-12-10T13:13:25;98890.63;;;0.26;76.99
75617;BME280;64200;55.426;37.758;2022-12-10T13:18:37;98885.16;;;0.22;76.81
75617;BME280;64200;55.426;37.758;2022-12-10T13:23:52;98876.94;;;0.22;77.08
75617;BME280;64200;55.426;37.758;2022-12-10T13:29:12;98875.31;;;0.28;77.18
75617;BME280;64200;55.426;37.758;2022-12-10T13:34:35;98866.69;;;0.26;77.12
75617;BME280;64200;55.426;37.758;2022-12-10T13:39:47;98855.94;;;0.12;77.76
75617;BME280;64200;55.426;37.758;2022-12-10T13:44:50;98846.47;;;0.16;78.27
75617;BME280;64200;55.426;37.758;2022-12-10T13:50:02;98845.28;;;0.17;77.95
75617;BME280;64200;55.426;37.758;2022-12-10T13:55:23;98847.97;;;0.21;78.20
75617;BME280;64200;55.426;37.758;2022-12-10T14:11:12;98834.25;;;0.21;78.39
75617;BME280;64200;55.426;37.758;2022-12-10T14:16:20;98832.59;;;0.27;78.51
75617;BME280;64200;55.426;37.758;2022-12-10T14:21:22;98828.28;;;0.26;78.50
75617;BME280;64200;55.426;37.758;2022-12-10T14:26:36;98814.88;;;0.32;78.34
75617;BME280;64200;55.426;37.758;2022-12-10T14:31:44;98817.09;;;0.41;78.75
75617;BME280;64200;55.426;37.758;2022-12-10T14:36:49;98807.63;;;0.45;78.39
75617;BME280;64200;55.426;37.758;2022-12-10T14:41:52;98790.09;;;0.39;78.52
75617;BME280;64200;55.426;37.758;2022-12-10T14:47:21;98782.69;;;0.36;78.95
75617;BME280;64200;55.426;37.758;2022-12-10T14:52:24;98780.06;;;0.29;78.67
75617;BME280;64200;55.426;37.758;2022-12-10T15:02:30;98752.97;;;0.31;79.25
75617;BME280;64200;55.426;37.758;2022-12-10T15:07:33;98730.19;;;0.34;79.21
75617;BME280;64200;55.426;37.758;2022-12-10T15:12:48;98735.00;;;0.30;79.52
75617;BME280;64200;55.426;37.758;2022-12-10T15:28:31;98696.59;;;0.30;80.26
75617;BME280;64200;55.426;37.758;2022-12-10T15:33:39;98681.66;;;0.31;79.69
75617;BME280;64200;55.426;37.758;2022-12-10T15:38:43;98677.81;;;0.28;80.25
75617;BME280;64200;55.426;37.758;2022-12-10T15:43:51;98669.16;;;0.30;80.38
75617;BME280;64200;55.426;37.758;2022-12-10T15:48:55;98658.97;;;0.30;80.67
75617;BME280;64200;55.426;37.758;2022-12-10T15:53:55;98662.03;;;0.32;81.11
75617;BME280;64200;55.426;37.758;2022-12-10T15:58:56;98637.50;;;0.25;80.89
75617;BME280;64200;55.426;37.758;2022-12-10T16:03:58;98636.69;;;0.28;81.54
75617;BME280;64200;55.426;37.758;2022-12-10T16:08:58;98609.06;;;0.35;81.59
75617;BME280;64200;55.426;37.758;2022-12-10T16:13:59;98603.69;;;0.32;81.07
75617;BME280;64200;55.426;37.758;2022-12-10T16:18:59;98597.19;;;0.22;80.75
75617;BME280;64200;55.426;37.758;2022-12-10T16:24:00;98594.81;;;0.24;82.05
75617;BME280;64200;55.426;37.758;2022-12-10T16:29:01;98592.41;;;0.26;81.93
75617;BME280;64200;55.426;37.758;2022-12-10T16:34:02;98601.88;;;0.25;81.88
75617;BME280;64200;55.426;37.758;2022-12-10T16:39:03;98602.13;;;0.31;81.17
75617;BME280;64200;55.426;37.758;2022-12-10T16:44:04;98600.72;;;0.23;81.54
75617;BME280;64200;55.426;37.758;2022-12-10T16:49:04;98588.34;;;0.34;81.29
75617;BME280;64200;55.426;37.758;2022-12-10T16:54:05;98588.78;;;0.33;81.26
75617;BME280;64200;55.426;37.758;2022-12-10T16:59:05;98600.72;;;0.43;81.57
75617;BME280;64200;55.426;37.758;2022-12-10T17:04:08;98587.38;;;0.45;81.66
75617;BME280;64200;55.426;37.758;2022-12-10T17:09:09;98576.03;;;0.43;81.77
75617;BME280;64200;55.426;37.758;2022-12-10T17:14:33;98585.09;;;0.40;81.63
75617;BME280;64200;55.426;37.758;2022-12-10T17:19:37;98570.97;;;0.41;81.69
75617;BME280;64200;55.426;37.758;2022-12-10T17:24:40;98558.09;;;0.38;81.19
75617;BME280;64200;55.426;37.758;2022-12-10T17:29:42;98565.00;;;0.46;81.51
75617;BME280;64200;55.426;37.758;2022-12-10T17:34:50;98554.72;;;0.50;81.41
75617;BME280;64200;55.426;37.758;2022-12-10T17:39:50;98538.31;;;0.47;81.58
75617;BME280;64200;55.426;37.758;2022-12-10T17:44:51;98538.59;;;0.52;81.39
75617;BME280;64200;55.426;37.758;2022-12-10T17:49:51;98535.50;;;0.50;81.38
75617;BME280;64200;55.426;37.758;2022-12-10T17:54:52;98526.63;;;0.43;81.20
75617;BME280;64200;55.426;37.758;2022-12-10T17:59:53;98537.63;;;0.43;81.21
75617;BME280;64200;55.426;37.758;2022-12-10T18:04:53;98515.81;;;0.35;81.80
75617;BME280;64200;55.426;37.758;2022-12-10T18:09:54;98507.53;;;0.39;81.54
75617;BME280;64200;55.426;37.758;2022-12-10T18:14:54;98503.78;;;0.49;82.24
75617;BME280;64200;55.426;37.758;2022-12-10T18:19:55;98494.94;;;0.42;81.74
75617;BME280;64200;55.426;37.758;2022-12-10T18:24:56;98473.06;;;0.38;81.70
75617;BME280;64200;55.426;37.758;2022-12-10T18:29:56;98472.91;;;0.45;81.44
75617;BME280;64200;55.426;37.758;2022-12-10T18:34:57;98474.78;;;0.48;82.08
75617;BME280;64200;55.426;37.758;2022-12-10T18:39:57;98473.00;;;0.42;81.57
75617;BME280;64200;55.426;37.758;2022-12-10T18:44:58;98480.78;;;0.43;81.54
75617;BME280;64200;55.426;37.758;2022-12-10T18:49:59;98476.59;;;0.39;81.85
75617;BME280;64200;55.426;37.758;2022-12-10T18:55:00;98460.28;;;0.31;81.71
75617;BME280;64200;55.426;37.758;2022-12-10T19:00:00;98458.63;;;0.34;82.07
75617;BME280;64200;55.426;37.758;2022-12-10T19:05:02;98447.44;;;0.28;82.05
75617;BME280;64200;55.426;37.758;2022-12-10T19:10:20;98459.28;;;0.42;82.19
75617;BME280;64200;55.426;37.758;2022-12-10T19:15:21;98456.53;;;0.42;81.99
75617;BME280;64200;55.426;37.758;2022-12-10T19:20:23;98445.78;;;0.47;82.47
75617;BME280;64200;55.426;37.758;2022-12-10T19:25:24;98448.81;;;0.53;82.20
75617;BME280;64200;55.426;37.758;2022-12-10T19:30:26;98454.03;;;0.47;81.61
75617;BME280;64200;55.426;37.758;2022-12-10T19:35:28;98433.03;;;0.41;81.50
75617;BME280;64200;55.426;37.758;2022-12-10T19:40:33;98429.84;;;0.42;81.57
75617;BME280;64200;55.426;37.758;2022-12-10T19:45:34;98414.59;;;0.41;81.48
75617;BME280;64200;55.426;37.758;2022-12-10T19:50:35;98414.16;;;0.43;81.38
75617;BME280;64200;55.426;37.758;2022-12-10T19:55:36;98406.03;;;0.39;81.88
75617;BME280;64200;55.426;37.758;2022-12-10T20:00:37;98414.59;;;0.41;82.40
75617;BME280;64200;55.426;37.758;2022-12-10T20:05:37;98415.03;;;0.40;81.99
75617;BME280;64200;55.426;37.758;2022-12-10T20:10:38;98402.84;;;0.41;81.81
75617;BME280;64200;55.426;37.758;2022-12-10T20:15:39;98397.47;;;0.37;82.02
75617;BME280;64200;55.426;37.758;2022-12-10T20:20:39;98399.69;;;0.42;82.11
75617;BME280;64200;55.426;37.758;2022-12-10T20:25:40;98406.03;;;0.39;81.51
75617;BME280;64200;55.426;37.758;2022-12-10T20:30:44;98399.25;;;0.44;81.91
75617;BME280;64200;55.426;37.758;2022-12-10T20:35:44;98394.09;;;0.46;82.16
75617;BME280;64200;55.426;37.758;2022-12-10T20:40:45;98385.22;;;0.42;82.04
75617;BME280;64200;55.426;37.758;2022-12-10T20:45:46;98400.66;;;0.52;81.78
75617;BME280;64200;55.426;37.758;2022-12-10T20:50:47;98397.91;;;0.52;81.92
75617;BME280;64200;55.426;37.758;2022-12-10T20:55:47;98398.31;;;0.50;81.60
75617;BME280;64200;55.426;37.758;2022-12-10T21:00:48;98396.41;;;0.47;82.17
75617;BME280;64200;55.426;37.758;2022-12-10T21:05:48;98394.28;;;0.55;81.97
75617;BME280;64200;55.426;37.758;2022-12-10T21:10:49;98395.75;;;0.60;81.84
75617;BME280;64200;55.426;37.758;2022-12-10T21:15:56;98397.81;;;0.56;81.19
75617;BME280;64200;55.426;37.758;2022-12-10T21:20:59;98389.47;;;0.43;81.45
75617;BME280;64200;55.426;37.758;2022-12-10T21:26:00;98405.44;;;0.48;81.93
75617;BME280;64200;55.426;37.758;2022-12-10T21:31:00;98414.00;;;0.50;81.26
75617;BME280;64200;55.426;37.758;2022-12-10T21:36:01;98409.22;;;0.54;81.12
75617;BME280;64200;55.426;37.758;2022-12-10T21:41:05;98400.88;;;0.58;81.38
75617;BME280;64200;55.426;37.758;2022-12-10T21:46:41;98394.78;;;0.66;81.61
75617;BME280;64200;55.426;37.758;2022-12-10T21:51:42;98399.34;;;0.73;81.48
75617;BME280;64200;55.426;37.758;2022-12-10T21:56:42;98383.31;;;0.72;81.07
75617;BME280;64200;55.426;37.758;2022-12-10T22:01:43;98371.38;;;0.78;81.06
75617;BME280;64200;55.426;37.758;2022-12-10T22:06:44;98368.63;;;0.78;81.69
75617;BME280;64200;55.426;37.758;2022-12-10T22:11:44;98370.84;;;0.83;80.88
75617;BME280;64200;55.426;37.758;2022-12-10T22:16:45;98379.25;;;0.93;81.29
75617;BME280;64200;55.426;37.758;2022-12-10T22:21:45;98375.38;;;0.90;80.55
75617;BME280;64200;55.426;37.758;2022-12-10T22:26:46;98379.41;;;0.85;81.19
75617;BME280;64200;55.426;37.758;2022-12-10T22:31:46;98369.16;;;0.73;80.75
75617;BME280;64200;55.426;37.758;2022-12-10T22:36:47;98360.75;;;0.80;81.28
75617;BME280;64200;55.426;37.758;2022-12-10T22:41:49;98370.75;;;0.87;81.18
75617;BME280;64200;55.426;37.758;2022-12-10T22:46:51;98372.19;;;0.92;81.64
75617;BME280;64200;55.426;37.758;2022-12-10T22:51:52;98373.69;;;0.96;81.10
75617;BME280;64200;55.426;37.758;2022-12-10T22:56:53;98383.78;;;0.99;81.26
75617;BME280;64200;55.426;37.758;2022-12-10T23:01:54;98385.78;;;0.82;80.43
75617;BME280;64200;55.426;37.758;2022-12-10T23:06:56;98391.78;;;0.94;81.08
75617;BME280;64200;55.426;37.758;2022-12-10T23:11:57;98393.50;;;0.87;81.16
75617;BME280;64200;55.426;37.758;2022-12-10T23:17:16;98391.38;;;0.79;81.42
75617;BME280;64200;55.426;37.758;2022-12-10T23:22:16;98401.75;;;0.87;81.15
75617;BME280;64200;55.426;37.758;2022-12-10T23:27:17;98395.03;;;0.72;81.38
75617;BME280;64200;55.426;37.758;2022-12-10T23:32:17;98394.97;;;0.76;81.50
75617;BME280;64200;55.426;37.758;2022-12-10T23:37:18;98384.91;;;0.85;81.28
75617;BME280;64200;55.426;37.758;2022-12-10T23:42:18;98393.31;;;0.95;81.35
75617;BME280;64200;55.426;37.758;2022-12-10T23:47:19;98407.03;;;0.95;81.63
75617;BME280;64200;55.426;37.758;2022-12-10T23:52:19;98412.34;;;1.02;81.34
75617;BME280;64200;55.426;37.758;2022-12-10T23:57:20;98410.16;;;1.26;81.72
